Details From LFKJ - Napoleon Bonaparte
To LFKC - St Catherine
Flight Number -
Tags generated
Created
Modified
Stats Distance 37 nm / 68 km
Max Altitude 4,500 ft / 1,372 m
Waypoints 3
Social Downloads 4
Likes 0
Share VATSIM

Download

Looking for another format? Having issues loading an existing format? Contact us
Advertisement - Login to hide

Notes

Basic altitude profile: - Ascent Rate: 700ft/min - Ascent Speed: 80kts - Cruise Altitude: 10000ft - Cruise Speed: 120kts - Descent Rate: 700ft/min - Descent Speed: 100kts

Route

LFKJ VICCO LFKC

ID Type Via Altitude Latitude Longitude Leg Dist Tot Dist Heading (true) Name
O LFKJ APT - 0 ft / 0 m 41.92289˚ 8.79959˚ - 0 nm - Napoleon Bonaparte
VICCO FIX - 4,500 ft / 1,372 m 42.13944˚ 8.81583˚ 13 nm 13 nm 3° / 3° -
O LFKC APT - 0 ft / 0 m 42.53076˚ 8.79293˚ 23 nm 36 nm 358° / 358° St Catherine

Altitude Profile

Advertisement - Login to hide

LFKJ

Details ICAO LFKJ (AJA)
Name Napoleon Bonaparte
Region France
Timezone Europe/Paris (UTC+2.0)
Stats Elevation 18 ft / 5 m (AMSL)
Location 41.922886° 8.799587°
Runways 2
Magnetic Variation 2.376° E

METAR

LFKJ 211900Z AUTO 00000KT 9999 FEW062 OVC078 17/15 Q1011 NOSIG

Decode

TAF

TAF AMD LFKJ 211504Z 2115/2215 22008KT 9999 BKN030 BKN050 TEMPO 2115/2118 2000 TSRA BKN010 SCT025CB BKN030 BECMG 2118/2120 04004KT PROB30 TEMPO 2203/2206 TSRA SCT013 SCT030CB BKN033 BECMG 2209/2210 23006KT

Decode

Departure Runways

ID Width Length Bearing (true) Bearing (mag) Surface Threshold Offset Overrun Length
02 180 ft / 55 m 7,899 ft / 2,408 m 24.94° 22.56° Asphalt 0 ft / 0 m 164 ft / 50 m
10 98 ft / 30 m 3,447 ft / 1,051 m 94.35° 91.97° Concrete 0 ft / 0 m 164 ft / 50 m
20 180 ft / 55 m 7,899 ft / 2,408 m 204.95° 202.57° Asphalt 745 ft / 227 m 230 ft / 70 m
28 98 ft / 30 m 3,447 ft / 1,051 m 274.36° 271.98° Concrete 213 ft / 65 m 0 ft / 0 m

LFKC

Details ICAO LFKC (CLY)
Name St Catherine
Region France
Timezone Europe/Paris (UTC+2.0)
Stats Elevation 208 ft / 63 m (AMSL)
Location 42.530762° 8.792925°
Runways 1
Magnetic Variation 2.389° E

METAR

LFKC 211900Z AUTO 00000KT 7000 RA FEW021 BKN044 BKN068 17/16 Q1011 TEMPO 18010KT 4000 TSRA SCT015 SCT030CB BKN040

Decode

TAF

TAF AMD LFKC 211505Z 2115/2215 34007KT 9999 BKN030 BKN090 TEMPO 2115/2124 18010KT SHRA FEW025 BKN040TCU BKN050 TEMPO 2115/2121 4000 TSRA SCT015 SCT030CB BKN040 BECMG 2119/2121 19004KT TEMPO 2208/2211 SHRA TX21/2212Z TN13/2204Z

Decode

Destination Runways

ID Width Length Bearing (true) Bearing (mag) Surface Threshold Offset Overrun Length
18 131 ft / 40 m 7,596 ft / 2,315 m 179.60° 177.21° Concrete 0 ft / 0 m 0 ft / 0 m
36 131 ft / 40 m 7,596 ft / 2,315 m 359.60° 357.21° Concrete 656 ft / 200 m 0 ft / 0 m

Approach Navaids

Runway Type Ident Frequency Range Bearing (true) Bearing (mag) Slope Elevation
18 Localiser CLI 109.50 MHz 18 nm / 33 km 179.62° 177.23° - 230 ft / 70 m (AMSL)
18 DME CLI 109.50 MHz 18 nm / 33 km - - - 230 ft / 70 m (AMSL)

Popular Alternatives